createdAt,value
2018-09-14T00:00:43.464Z,11.97
2018-09-14T00:03:11.652Z,8.37
2018-09-14T00:05:39.761Z,10.33
2018-09-14T00:08:07.892Z,11.03
2018-09-14T00:10:36.093Z,6.97
2018-09-14T00:13:04.150Z,8.03
2018-09-14T00:15:41.732Z,10.80
2018-09-14T00:18:09.822Z,8.00
2018-09-14T00:20:37.909Z,10.00
2018-09-14T00:23:05.985Z,9.70
2018-09-14T00:25:34.195Z,10.03
2018-09-14T00:28:02.304Z,11.30
2018-09-14T00:30:30.305Z,9.63
2018-09-14T00:32:58.419Z,11.47
2018-09-14T00:35:26.672Z,13.77
2018-09-14T00:37:54.886Z,9.10
2018-09-14T00:40:22.972Z,9.77
2018-09-14T00:42:51.184Z,13.20
2018-09-14T00:45:19.364Z,13.50
2018-09-14T00:47:47.733Z,9.07
2018-09-14T00:50:15.826Z,12.47
2018-09-14T00:52:43.961Z,10.37
2018-09-14T00:55:12.135Z,11.27
2018-09-14T00:57:40.361Z,9.37
2018-09-14T01:00:08.463Z,12.40
2018-09-14T01:02:36.532Z,13.17
2018-09-14T01:05:33.949Z,9.80
2018-09-14T01:08:02.001Z,8.80
2018-09-14T01:10:30.093Z,8.17
2018-09-14T01:12:59.232Z,10.10
2018-09-14T01:15:27.312Z,16.50
2018-09-14T01:17:55.484Z,10.77
2018-09-14T01:20:24.166Z,14.73
2018-09-14T01:22:52.410Z,15.93
2018-09-14T01:25:20.607Z,13.13
2018-09-14T01:27:48.860Z,12.33
2018-09-14T01:30:17.023Z,12.67
2018-09-14T01:32:45.168Z,12.40
2018-09-14T01:35:18.816Z,13.43
2018-09-14T01:37:46.941Z,12.53
2018-09-14T01:40:15.110Z,9.83
2018-09-14T01:42:43.428Z,17.97
2018-09-14T01:45:16.913Z,11.87
2018-09-14T01:47:44.953Z,13.07
2018-09-14T01:50:13.112Z,10.17
2018-09-14T01:52:41.310Z,10.37
2018-09-14T01:55:09.353Z,9.57
2018-09-14T01:57:37.406Z,10.63
2018-09-14T02:00:05.931Z,10.73
2018-09-14T02:02:34.053Z,12.20
2018-09-14T02:05:02.289Z,10.43
2018-09-14T02:07:30.445Z,9.33
2018-09-14T02:09:58.610Z,12.67
2018-09-14T02:12:26.717Z,10.43
2018-09-14T02:14:54.836Z,11.70
2018-09-14T02:17:22.915Z,11.20
2018-09-14T02:19:51.021Z,12.97
2018-09-14T02:22:19.166Z,12.10
2018-09-14T02:24:47.280Z,12.83
2018-09-14T02:27:15.306Z,9.90
2018-09-14T02:29:43.414Z,10.57
2018-09-14T02:32:11.504Z,11.27
2018-09-14T02:34:39.676Z,11.33
2018-09-14T02:37:07.790Z,13.37
2018-09-14T02:39:35.966Z,12.63
2018-09-14T02:42:04.215Z,10.63
2018-09-14T02:44:32.701Z,12.80
2018-09-14T02:47:00.786Z,12.17
2018-09-14T02:49:28.936Z,10.93
2018-09-14T02:51:57.168Z,13.30
2018-09-14T02:54:25.195Z,12.13
2018-09-14T02:56:53.362Z,11.10
2018-09-14T02:59:21.499Z,11.83
2018-09-14T03:01:50.332Z,12.67
2018-09-14T03:04:18.462Z,11.07
2018-09-14T03:06:46.717Z,8.73
2018-09-14T03:09:14.939Z,12.00
2018-09-14T03:11:43.151Z,11.87
2018-09-14T03:14:12.021Z,10.67
2018-09-14T03:16:40.851Z,13.20
2018-09-14T03:19:08.987Z,17.80
2018-09-14T03:21:37.121Z,16.47
2018-09-14T03:24:05.267Z,14.03
2018-09-14T03:26:33.332Z,10.43
2018-09-14T03:29:01.520Z,11.43
2018-09-14T03:31:29.824Z,14.30
2018-09-14T03:34:01.875Z,16.83
2018-09-14T03:36:29.971Z,11.00
2018-09-14T03:38:57.999Z,12.80
2018-09-14T03:41:26.321Z,12.53
2018-09-14T03:43:54.606Z,11.87
2018-09-14T03:46:22.867Z,12.47
2018-09-14T03:48:50.924Z,12.70
2018-09-14T03:51:19.124Z,15.43
2018-09-14T03:53:47.285Z,14.07
2018-09-14T03:56:15.463Z,14.57
2018-09-14T03:58:43.571Z,15.07
2018-09-14T04:01:11.696Z,12.50
2018-09-14T04:03:39.891Z,10.87
2018-09-14T04:06:09.182Z,14.80
2018-09-14T04:08:37.379Z,12.03
2018-09-14T04:11:05.525Z,12.33
2018-09-14T04:13:33.954Z,12.33
2018-09-14T04:16:02.054Z,12.90
2018-09-14T04:18:30.246Z,16.50
2018-09-14T04:20:58.401Z,14.97
2018-09-14T04:23:26.523Z,16.80
2018-09-14T04:25:55.375Z,12.70
2018-09-14T04:28:23.481Z,13.37
2018-09-14T04:30:51.682Z,16.23
2018-09-14T04:33:19.826Z,18.07
2018-09-14T04:35:47.949Z,11.77
2018-09-14T04:38:16.063Z,15.10
2018-09-14T04:40:44.100Z,14.13
2018-09-14T04:43:12.121Z,15.97
2018-09-14T04:45:40.310Z,12.63
2018-09-14T04:48:08.594Z,12.77
2018-09-14T04:50:36.796Z,15.63
2018-09-14T04:53:05.063Z,12.00
2018-09-14T04:55:33.125Z,12.50
2018-09-14T04:58:01.433Z,15.13
2018-09-14T05:00:29.510Z,17.47
2018-09-14T05:02:58.465Z,20.47
2018-09-14T05:05:26.716Z,14.10
2018-09-14T05:07:54.947Z,15.13
2018-09-14T05:10:24.655Z,14.93
2018-09-14T05:12:52.828Z,14.03
2018-09-14T05:15:20.948Z,15.10
2018-09-14T05:17:49.210Z,15.30
2018-09-14T05:20:17.342Z,14.17
2018-09-14T05:22:45.629Z,13.37
2018-09-14T05:25:14.016Z,15.20
2018-09-14T05:27:42.094Z,12.97
2018-09-14T05:30:10.202Z,20.57
2018-09-14T05:32:38.414Z,12.80
2018-09-14T05:35:06.825Z,12.73
2018-09-14T05:37:35.045Z,13.37
2018-09-14T05:40:03.946Z,17.03
2018-09-14T05:42:32.369Z,15.53
2018-09-14T05:45:00.593Z,13.37
2018-09-14T05:47:28.709Z,15.93
2018-09-14T05:49:56.854Z,16.03
2018-09-14T05:52:24.936Z,15.93
2018-09-14T05:54:53.122Z,14.37
2018-09-14T05:57:21.395Z,16.30
2018-09-14T05:59:49.603Z,13.60
2018-09-14T06:02:17.945Z,16.73
2018-09-14T06:04:47.382Z,17.40
2018-09-14T06:07:15.753Z,17.20
2018-09-14T06:09:43.782Z,16.43
2018-09-14T06:12:12.051Z,15.17
2018-09-14T06:14:40.706Z,13.43
2018-09-14T06:17:08.918Z,17.27
2018-09-14T06:19:37.020Z,14.37
2018-09-14T06:22:05.264Z,15.77
2018-09-14T06:24:33.460Z,17.77
2018-09-14T06:27:01.736Z,20.50
2018-09-14T06:29:29.897Z,16.27
2018-09-14T06:31:58.185Z,15.93
2018-09-14T06:34:26.334Z,21.57
2018-09-14T06:36:54.509Z,16.77
2018-09-14T06:39:23.269Z,18.93
2018-09-14T06:41:51.397Z,15.70
2018-09-14T06:44:19.473Z,14.23
2018-09-14T06:46:47.808Z,18.13
2018-09-14T06:49:16.052Z,16.27
2018-09-14T06:51:44.228Z,15.30
2018-09-14T06:54:12.881Z,19.67
2018-09-14T06:56:41.003Z,14.87
2018-09-14T06:59:09.267Z,21.40
2018-09-14T07:01:37.380Z,22.47
2018-09-14T07:04:05.591Z,14.30
2018-09-14T07:06:33.787Z,14.77
2018-09-14T07:09:01.853Z,17.30
2018-09-14T07:11:30.289Z,13.03
2018-09-14T07:13:58.532Z,16.37
2018-09-14T07:16:26.721Z,18.80
2018-09-14T07:18:55.037Z,25.17
2018-09-14T07:21:23.271Z,19.83
2018-09-14T07:23:51.495Z,20.60
2018-09-14T07:26:19.780Z,17.10
2018-09-14T07:28:48.242Z,18.43
2018-09-14T07:31:16.426Z,15.87
2018-09-14T07:33:44.837Z,18.90
2018-09-14T07:36:13.281Z,16.47
2018-09-14T07:38:41.480Z,17.57
2018-09-14T07:41:09.657Z,15.53
2018-09-14T07:43:37.862Z,17.07
2018-09-14T07:46:06.128Z,16.73
2018-09-14T07:48:34.358Z,17.73
2018-09-14T07:51:02.622Z,17.07
2018-09-14T07:53:30.868Z,17.50
2018-09-14T07:55:59.009Z,18.40
2018-09-14T07:58:27.090Z,15.87
2018-09-14T08:00:56.181Z,16.80
2018-09-14T08:03:24.337Z,15.37
2018-09-14T08:05:52.433Z,17.03
2018-09-14T08:08:20.477Z,17.13
2018-09-14T08:10:48.558Z,12.53
2018-09-14T08:13:16.890Z,17.47
2018-09-14T08:15:45.901Z,17.30
2018-09-14T08:18:13.997Z,15.97
2018-09-14T08:20:42.149Z,18.13
2018-09-14T08:23:10.308Z,14.87
2018-09-14T08:25:38.501Z,19.73
2018-09-14T08:28:06.813Z,17.70
2018-09-14T08:30:34.967Z,15.63
2018-09-14T08:33:03.196Z,18.13
2018-09-14T08:35:31.402Z,18.00
2018-09-14T08:37:59.611Z,17.10
2018-09-14T08:40:27.874Z,14.60
2018-09-14T08:42:56.115Z,15.67
2018-09-14T08:45:24.223Z,18.27
2018-09-14T08:47:52.351Z,18.70
2018-09-14T08:50:20.445Z,17.07
2018-09-14T08:52:48.707Z,20.57
2018-09-14T08:55:16.832Z,20.43
2018-09-14T08:57:45.041Z,18.60
2018-09-14T09:00:16.110Z,16.90
2018-09-14T09:02:44.693Z,20.13
2018-09-14T09:05:12.873Z,19.73
2018-09-14T09:07:41.095Z,20.53
2018-09-14T09:10:09.281Z,22.77
2018-09-14T09:12:37.553Z,17.87
2018-09-14T09:15:06.032Z,15.77
2018-09-14T09:17:35.271Z,17.83
2018-09-14T09:20:03.458Z,20.30
2018-09-14T09:22:31.605Z,18.90
2018-09-14T09:24:59.810Z,19.47
2018-09-14T09:27:28.202Z,17.77
2018-09-14T09:29:56.346Z,18.20
2018-09-14T09:32:24.985Z,16.63
2018-09-14T09:34:53.247Z,19.23
2018-09-14T09:37:21.490Z,16.90
2018-09-14T09:39:49.653Z,21.10
2018-09-14T09:42:17.821Z,17.87
2018-09-14T09:44:45.998Z,15.57
2018-09-14T09:47:14.241Z,19.13
2018-09-14T09:49:42.362Z,18.27
2018-09-14T09:52:10.501Z,18.50
2018-09-14T09:54:38.677Z,16.77
2018-09-14T09:57:06.886Z,15.67
2018-09-14T09:59:35.253Z,15.57
2018-09-14T10:02:09.028Z,16.27
2018-09-14T10:06:48.429Z,16.63
2018-09-14T10:09:16.692Z,16.23
2018-09-14T10:11:44.874Z,12.37
2018-09-14T10:14:13.018Z,15.03
2018-09-14T10:16:41.270Z,13.03
2018-09-14T10:19:09.374Z,14.00
2018-09-14T10:21:37.580Z,25.93
2018-09-14T10:24:05.790Z,10.80
2018-09-14T10:26:34.125Z,8.37
2018-09-14T10:29:02.389Z,7.75
2018-09-14T10:31:30.493Z,10.63
2018-09-14T10:33:58.695Z,16.65
2018-09-14T10:36:26.823Z,11.20
2018-09-14T10:38:54.982Z,11.37
2018-09-14T10:41:23.281Z,10.03
2018-09-14T10:43:51.538Z,6.60
2018-09-14T10:46:19.802Z,9.90
2018-09-14T10:48:47.989Z,8.50
2018-09-14T10:51:16.078Z,9.73
2018-09-14T10:53:44.249Z,7.80
2018-09-14T10:56:12.368Z,9.40
2018-09-14T10:58:43.473Z,7.20
2018-09-14T11:01:14.681Z,10.83
2018-09-14T11:03:43.194Z,11.20
2018-09-14T11:06:11.954Z,10.77
2018-09-14T11:08:40.087Z,7.53
2018-09-14T11:11:09.159Z,7.37
2018-09-14T11:13:37.357Z,10.17
2018-09-14T11:16:05.492Z,7.53
2018-09-14T11:18:33.622Z,7.97
2018-09-14T11:21:02.025Z,9.80
2018-09-14T11:23:31.017Z,7.97
2018-09-14T11:25:59.229Z,7.50
2018-09-14T11:28:27.509Z,9.08
2018-09-14T11:30:55.784Z,6.45
2018-09-14T11:33:24.003Z,7.17
2018-09-14T11:35:52.404Z,6.67
2018-09-14T11:38:20.532Z,8.10
2018-09-14T11:40:48.784Z,10.30
2018-09-14T11:43:17.040Z,6.80
2018-09-14T11:45:45.234Z,5.37
2018-09-14T11:48:13.431Z,12.13
2018-09-14T11:50:41.508Z,7.83
2018-09-14T11:53:09.727Z,9.93
2018-09-14T11:55:37.905Z,5.03
2018-09-14T11:58:06.113Z,25.10
2018-09-14T12:00:35.198Z,5.10
2018-09-14T12:03:03.410Z,4.97
2018-09-14T12:05:31.502Z,5.47
2018-09-14T12:07:59.646Z,5.57
2018-09-14T12:10:27.865Z,6.87
2018-09-14T12:12:56.131Z,8.17
2018-09-14T12:15:24.440Z,9.70
2018-09-14T12:17:52.649Z,7.03
2018-09-14T12:20:20.860Z,6.90
2018-09-14T12:22:49.105Z,7.40
2018-09-14T12:25:17.134Z,6.90
2018-09-14T12:27:45.321Z,6.60
2018-09-14T12:30:13.434Z,17.67
2018-09-14T12:32:41.532Z,7.97
2018-09-14T12:35:09.859Z,9.03
2018-09-14T12:37:37.948Z,8.00
2018-09-14T12:40:06.198Z,13.43
2018-09-14T12:42:34.409Z,12.47
2018-09-14T12:45:02.766Z,7.67
2018-09-14T12:47:30.929Z,12.93
2018-09-14T12:49:59.029Z,10.80
2018-09-14T12:52:27.152Z,8.10
2018-09-14T12:54:55.265Z,8.53
2018-09-14T12:57:23.397Z,8.57
2018-09-14T12:59:51.468Z,7.63
2018-09-14T13:02:19.563Z,10.93
2018-09-14T13:04:47.663Z,18.40
2018-09-14T13:07:15.866Z,8.17
2018-09-14T13:09:43.930Z,10.53
2018-09-14T13:12:12.065Z,14.63
2018-09-14T13:14:40.233Z,9.17
2018-09-14T13:17:11.709Z,8.13
2018-09-14T13:19:40.255Z,9.83
2018-09-14T13:22:08.881Z,7.30
2018-09-14T13:24:37.017Z,9.57
2018-09-14T13:27:05.239Z,8.63
2018-09-14T13:29:33.655Z,20.93
2018-09-14T13:32:01.735Z,7.00
2018-09-14T13:34:29.865Z,10.57
2018-09-14T13:36:58.070Z,7.13
2018-09-14T13:39:26.161Z,8.47
2018-09-14T13:41:54.242Z,8.43
2018-09-14T13:44:22.296Z,6.57
2018-09-14T13:46:51.466Z,8.77
2018-09-14T13:49:19.571Z,8.93
2018-09-14T13:51:47.742Z,9.87
2018-09-14T13:54:15.868Z,16.33
2018-09-14T13:56:43.971Z,7.57
2018-09-14T13:59:12.922Z,7.10
2018-09-14T14:01:41.152Z,6.70
2018-09-14T14:04:09.060Z,7.53
2018-09-14T14:06:37.147Z,6.87
2018-09-14T14:09:09.782Z,8.83
2018-09-14T14:11:37.933Z,17.93
2018-09-14T14:14:06.354Z,6.80
2018-09-14T14:16:34.653Z,8.63
2018-09-14T14:19:02.901Z,11.07
2018-09-14T14:21:30.936Z,11.83
2018-09-14T14:23:59.053Z,9.80
2018-09-14T14:26:27.199Z,6.70
2018-09-14T14:28:55.348Z,9.77
2018-09-14T14:31:23.512Z,11.53
2018-09-14T14:33:54.566Z,7.23
2018-09-14T14:36:33.577Z,8.30
2018-09-14T14:39:01.930Z,7.47
2018-09-14T14:41:37.769Z,7.93
2018-09-14T14:44:16.039Z,7.17
2018-09-14T14:46:49.727Z,6.13
2018-09-14T14:49:24.417Z,8.20
2018-09-14T14:52:07.429Z,6.13
2018-09-14T14:54:35.643Z,5.33
2018-09-14T14:57:05.627Z,7.53
2018-09-14T14:59:35.732Z,11.23
2018-09-14T15:02:03.908Z,8.10
2018-09-14T15:04:32.415Z,9.73
2018-09-14T15:07:00.598Z,7.17
2018-09-14T15:09:28.805Z,6.27
2018-09-14T15:11:57.298Z,6.50
2018-09-14T15:14:28.710Z,6.07
2018-09-14T15:17:01.213Z,9.17
2018-09-14T15:19:29.518Z,6.23
2018-09-14T15:21:57.778Z,7.47
2018-09-14T15:24:25.996Z,6.10
2018-09-14T15:26:54.168Z,6.40
2018-09-14T15:29:22.395Z,5.40
2018-09-14T15:31:50.635Z,6.10
2018-09-14T15:34:21.950Z,7.77
2018-09-14T15:36:58.586Z,7.70
2018-09-14T15:39:27.202Z,11.37
2018-09-14T15:44:40.863Z,5.80
2018-09-14T15:47:09.033Z,6.50
2018-09-14T15:49:37.224Z,5.30
2018-09-14T15:52:05.465Z,8.63
2018-09-14T15:54:34.428Z,5.10
2018-09-14T15:57:02.603Z,5.20
2018-09-14T15:59:30.751Z,6.83
2018-09-14T16:01:58.930Z,6.40
2018-09-14T16:04:27.308Z,7.37
2018-09-14T16:06:55.477Z,5.00
2018-09-14T16:09:23.661Z,5.33
2018-09-14T16:11:51.758Z,4.60
2018-09-14T16:14:19.864Z,5.60
2018-09-14T16:16:47.864Z,5.37
2018-09-14T16:19:16.102Z,5.63
2018-09-14T16:21:44.335Z,6.43
2018-09-14T16:24:12.593Z,5.07
2018-09-14T16:26:40.666Z,6.43
2018-09-14T16:29:08.809Z,5.30
2018-09-14T16:31:37.094Z,11.50
2018-09-14T16:34:05.225Z,4.33
2018-09-14T16:36:33.376Z,6.43
2018-09-14T16:39:01.817Z,6.63
2018-09-14T16:41:29.962Z,7.90
2018-09-14T16:43:58.135Z,5.87
2018-09-14T16:46:26.446Z,7.40
2018-09-14T16:48:54.583Z,5.37
2018-09-14T16:51:22.890Z,8.23
2018-09-14T16:53:51.026Z,5.37
2018-09-14T16:56:19.144Z,10.17
2018-09-14T16:58:47.274Z,5.57
2018-09-14T17:01:15.406Z,7.07
2018-09-14T17:03:43.591Z,7.23
2018-09-14T17:06:11.814Z,6.67
2018-09-14T17:08:40.035Z,6.03
2018-09-14T17:11:08.616Z,8.40
2018-09-14T17:13:36.818Z,4.60
2018-09-14T17:16:04.993Z,4.23
2018-09-14T17:18:33.475Z,4.00
2018-09-14T17:21:01.732Z,5.47
2018-09-14T17:23:29.952Z,6.60
2018-09-14T17:25:58.143Z,5.37
2018-09-14T17:28:26.205Z,36.97
2018-09-14T17:30:54.497Z,6.03
2018-09-14T17:33:22.615Z,6.27
2018-09-14T17:35:50.808Z,12.90
2018-09-14T17:38:18.913Z,10.97
2018-09-14T17:40:47.018Z,6.33
2018-09-14T17:43:15.185Z,6.07
2018-09-14T17:45:43.403Z,11.63
2018-09-14T17:48:11.605Z,6.23
2018-09-14T17:50:39.774Z,6.80
2018-09-14T17:53:08.001Z,10.17
2018-09-14T17:55:36.293Z,6.27
2018-09-14T17:58:04.468Z,10.53
2018-09-14T18:00:32.640Z,6.10
2018-09-14T18:03:00.862Z,6.87
2018-09-14T18:05:29.105Z,6.63
2018-09-14T18:07:57.294Z,6.53
2018-09-14T18:10:25.479Z,6.00
2018-09-14T18:12:53.699Z,11.73
2018-09-14T18:15:26.504Z,7.47
2018-09-14T18:17:54.770Z,10.13
2018-09-14T18:20:23.000Z,9.47
2018-09-14T18:22:51.199Z,6.87
2018-09-14T18:25:19.400Z,11.03
2018-09-14T18:27:47.793Z,6.80
2018-09-14T18:30:15.834Z,5.77
2018-09-14T18:32:44.304Z,6.13
2018-09-14T18:35:12.720Z,7.00
2018-09-14T18:37:41.124Z,6.30
2018-09-14T18:40:09.497Z,8.50
2018-09-14T18:42:37.929Z,5.43
2018-09-14T18:45:06.238Z,6.97
2018-09-14T18:47:35.208Z,6.57
2018-09-14T18:50:03.790Z,6.43
2018-09-14T18:52:32.408Z,5.97
2018-09-14T18:55:00.810Z,11.27
2018-09-14T18:57:29.226Z,6.30
2018-09-14T18:59:57.766Z,6.57
2018-09-14T19:02:26.477Z,5.60
2018-09-14T19:04:54.998Z,5.27
2018-09-14T19:07:23.248Z,5.30
2018-09-14T19:09:51.692Z,7.77
2018-09-14T19:12:19.903Z,7.57
2018-09-14T19:14:48.122Z,5.00
2018-09-14T19:17:16.463Z,3.87
2018-09-14T19:19:44.970Z,4.33
2018-09-14T19:22:13.630Z,4.87
2018-09-14T19:24:42.088Z,4.87
2018-09-14T19:27:10.595Z,4.40
2018-09-14T19:29:39.090Z,9.27
2018-09-14T19:32:07.357Z,4.60
2018-09-14T19:34:35.864Z,5.27
2018-09-14T19:37:04.065Z,6.40
2018-09-14T19:39:32.230Z,6.97
2018-09-14T19:42:00.651Z,4.27
2018-09-14T19:44:29.308Z,9.43
2018-09-14T19:46:57.815Z,7.40
2018-09-14T19:49:26.022Z,7.33
2018-09-14T19:51:54.463Z,4.80
2018-09-14T19:54:23.828Z,10.93
2018-09-14T19:56:52.635Z,6.87
2018-09-14T19:59:20.976Z,8.17
2018-09-14T20:01:49.339Z,9.33
2018-09-14T20:04:17.768Z,6.77
2018-09-14T20:06:46.024Z,7.37
2018-09-14T20:09:15.111Z,5.53
2018-09-14T20:11:43.682Z,4.47
2018-09-14T20:14:11.973Z,11.23
2018-09-14T20:16:40.345Z,8.33
2018-09-14T20:19:08.550Z,7.13
2018-09-14T20:21:36.905Z,11.53
2018-09-14T20:24:05.130Z,8.33
2018-09-14T20:26:33.309Z,6.13
2018-09-14T20:29:01.381Z,5.57
2018-09-14T20:31:29.471Z,9.03
2018-09-14T20:33:57.625Z,6.03
2018-09-14T20:36:25.860Z,7.47
2018-09-14T20:38:54.231Z,10.37
2018-09-14T20:41:22.324Z,6.03
2018-09-14T20:43:50.562Z,6.70
2018-09-14T20:46:18.775Z,6.03
2018-09-14T20:48:47.084Z,7.20
2018-09-14T20:51:15.356Z,5.77
2018-09-14T20:53:43.577Z,10.17
2018-09-14T20:56:11.911Z,6.47
2018-09-14T20:58:40.145Z,7.57
2018-09-14T21:01:08.322Z,6.23
2018-09-14T21:03:36.530Z,10.10
2018-09-14T21:06:04.831Z,11.07
2018-09-14T21:08:33.019Z,8.03
2018-09-14T21:11:01.240Z,6.70
2018-09-14T21:13:30.379Z,7.57
2018-09-14T21:15:58.554Z,6.83
2018-09-14T21:18:26.782Z,6.27
2018-09-14T21:20:56.008Z,7.17
2018-09-14T21:23:26.300Z,6.40
2018-09-14T21:25:54.485Z,8.77
2018-09-14T21:28:22.805Z,12.27
2018-09-14T21:30:51.068Z,6.70
2018-09-14T21:33:19.233Z,9.00
2018-09-14T21:35:47.512Z,6.00
2018-09-14T21:38:15.785Z,7.80
2018-09-14T21:40:43.986Z,10.27
2018-09-14T21:43:12.137Z,5.83
2018-09-14T21:45:40.311Z,4.87
2018-09-14T21:48:08.471Z,5.90
2018-09-14T21:50:36.753Z,13.10
2018-09-14T21:53:04.894Z,6.67
2018-09-14T21:55:33.138Z,6.13
2018-09-14T21:58:01.347Z,5.83
2018-09-14T22:00:35.345Z,6.53
2018-09-14T22:03:03.555Z,6.03
2018-09-14T22:05:31.585Z,6.80
2018-09-14T22:07:59.782Z,4.73
2018-09-14T22:10:28.002Z,5.57
2018-09-14T22:12:56.079Z,5.10
2018-09-14T22:15:24.230Z,5.70
2018-09-14T22:17:53.949Z,6.70
2018-09-14T22:20:22.052Z,5.40
2018-09-14T22:22:50.201Z,4.00
2018-09-14T22:25:18.362Z,8.13
2018-09-14T22:27:46.699Z,10.03
2018-09-14T22:30:14.882Z,9.20
2018-09-14T22:32:43.019Z,6.77
2018-09-14T22:35:11.374Z,8.40
2018-09-14T22:37:39.682Z,5.07
2018-09-14T22:40:08.864Z,5.17
2018-09-14T22:42:36.947Z,6.53
2018-09-14T22:45:05.318Z,9.33
2018-09-14T22:47:33.341Z,4.77
2018-09-14T22:50:01.417Z,6.33
2018-09-14T22:52:29.581Z,5.97
2018-09-14T22:54:57.792Z,5.67
2018-09-14T22:57:25.904Z,7.47
2018-09-14T22:59:53.985Z,6.33
2018-09-14T23:02:22.170Z,5.57
2018-09-14T23:04:50.701Z,5.97
2018-09-14T23:07:18.912Z,8.00
2018-09-14T23:09:47.244Z,4.73
2018-09-14T23:12:15.412Z,5.97
2018-09-14T23:14:43.464Z,5.77
2018-09-14T23:17:11.741Z,5.63
2018-09-14T23:19:39.904Z,5.00
2018-09-14T23:22:08.437Z,5.80
2018-09-14T23:24:36.595Z,4.90
2018-09-14T23:27:04.908Z,4.47
2018-09-14T23:29:33.068Z,7.03
2018-09-14T23:32:01.333Z,7.93
2018-09-14T23:34:29.606Z,4.50
2018-09-14T23:36:57.871Z,5.60
2018-09-14T23:39:26.108Z,7.80
2018-09-14T23:41:54.353Z,7.63
2018-09-14T23:44:22.620Z,5.60
2018-09-14T23:46:50.885Z,6.80
2018-09-14T23:49:19.051Z,8.20
2018-09-14T23:51:47.252Z,6.93
2018-09-14T23:54:15.437Z,6.83
2018-09-14T23:56:43.721Z,4.27
2018-09-14T23:59:11.907Z,6.30
